Time;durP1;ratioP1;P1;durP2;ratioP2;P2;SDS_P1;SDS_P2;PMS_P1;PMS_P2;Temp;Humidity;BMP_temperature;BMP_pressure;BME280_temperature;BME280_humidity;BME280_pressure;Samples;Min_cycle;Max_cycle;Signal;HPM_P1;HPM_P2
2022/10/16 00:01:36;;;;;;;12.43;9.40;;;11.50;99.90;;;;;;4958602;28;20439;-77
2022/10/16 00:04:04;;;;;;;12.02;9.10;;;11.50;99.90;;;;;;4974321;28;20047;-77
2022/10/16 00:06:32;;;;;;;20.17;10.00;;;11.50;99.90;;;;;;4973612;28;20139;-76
2022/10/16 00:08:59;;;;;;;12.73;9.40;;;11.50;99.90;;;;;;4964410;28;20047;-78
2022/10/16 00:11:28;;;;;;;14.10;9.68;;;11.50;99.90;;;;;;4968587;28;20089;-77
2022/10/16 00:13:58;;;;;;;18.08;9.70;;;11.50;99.90;;;;;;4973834;28;20055;-78
2022/10/16 00:16:26;;;;;;;15.88;10.40;;;11.50;99.90;;;;;;4975388;28;20050;-78
2022/10/16 00:18:55;;;;;;;18.30;9.95;;;11.40;99.90;;;;;;4949438;29;20439;-78
2022/10/16 00:21:24;;;;;;;13.68;9.20;;;11.40;99.90;;;;;;4958374;28;20055;-77
2022/10/16 00:24:10;;;;;;;17.17;9.95;;;11.40;99.90;;;;;;4969150;28;20503;-78
2022/10/16 00:26:40;;;;;;;17.40;9.25;;;11.40;99.90;;;;;;4975092;28;20684;-78
2022/10/16 00:29:08;;;;;;;12.82;8.52;;;11.40;99.90;;;;;;4974261;28;20086;-78
2022/10/16 00:31:35;;;;;;;17.42;9.38;;;11.40;99.90;;;;;;4973716;28;20043;-77
2022/10/16 00:34:04;;;;;;;15.02;9.38;;;11.40;99.90;;;;;;4969926;28;20087;-76
2022/10/16 00:36:31;;;;;;;17.17;8.70;;;11.40;99.90;;;;;;4959062;28;20098;-77
2022/10/16 00:39:00;;;;;;;14.88;9.35;;;11.40;99.90;;;;;;4974087;28;20063;-77
2022/10/16 00:41:28;;;;;;;11.15;8.73;;;11.40;99.90;;;;;;4958677;28;20054;-77
2022/10/16 00:43:58;;;;;;;13.95;9.18;;;11.30;99.90;;;;;;4955636;28;20047;-76
2022/10/16 00:46:28;;;;;;;14.50;9.88;;;11.40;99.90;;;;;;4957457;28;20503;-78
2022/10/16 00:49:03;;;;;;;14.95;9.18;;;11.40;99.90;;;;;;4951976;29;20039;-77
2022/10/16 00:51:33;;;;;;;15.38;9.10;;;11.40;99.90;;;;;;4951212;28;20053;-77
2022/10/16 00:54:01;;;;;;;19.15;9.93;;;11.30;99.90;;;;;;4967930;28;20042;-78
2022/10/16 00:56:28;;;;;;;13.15;9.60;;;11.30;99.90;;;;;;4970646;28;20047;-77
2022/10/16 00:58:56;;;;;;;12.80;9.98;;;11.30;99.90;;;;;;4974796;28;20050;-77
2022/10/16 01:01:23;;;;;;;13.48;9.38;;;11.40;99.90;;;;;;4950529;29;20071;-78
2022/10/16 01:03:50;;;;;;;17.48;9.82;;;11.30;99.90;;;;;;4957954;28;20053;-77
2022/10/16 01:06:25;;;;;;;14.30;9.05;;;11.30;99.90;;;;;;4961494;28;20365;-78
2022/10/16 01:09:04;;;;;;;11.35;8.50;;;11.30;99.90;;;;;;4964599;28;20046;-77
2022/10/16 01:11:39;;;;;;;16.88;8.95;;;11.30;99.90;;;;;;4974271;28;20051;-78
2022/10/16 01:14:15;;;;;;;14.20;9.10;;;11.40;99.90;;;;;;4972254;28;20046;-78
2022/10/16 01:16:49;;;;;;;13.23;9.20;;;11.30;99.90;;;;;;4974224;28;20085;-77
2022/10/16 01:19:27;;;;;;;15.80;9.88;;;11.20;99.90;;;;;;4958321;28;20078;-78
2022/10/16 01:21:56;;;;;;;15.73;9.63;;;11.20;99.90;;;;;;4965960;28;20150;-78
2022/10/16 01:24:33;;;;;;;15.15;11.02;;;11.10;99.90;;;;;;4961485;28;20046;-78
2022/10/16 01:27:12;;;;;;;18.10;11.18;;;11.10;99.90;;;;;;4964175;28;20047;-78
2022/10/16 01:29:45;;;;;;;17.33;10.77;;;11.10;99.90;;;;;;4974119;28;20050;-78
2022/10/16 01:32:19;;;;;;;15.88;12.25;;;11.20;99.90;;;;;;4955273;28;20139;-77
2022/10/16 01:34:53;;;;;;;13.75;11.43;;;11.20;99.90;;;;;;4973889;28;20137;-77
2022/10/16 01:37:30;;;;;;;15.63;11.55;;;11.10;99.90;;;;;;4973739;28;20054;-77
2022/10/16 01:40:01;;;;;;;18.13;11.18;;;11.10;99.90;;;;;;4956446;28;20058;-77
2022/10/16 01:42:38;;;;;;;14.75;10.23;;;11.10;99.90;;;;;;4972862;28;20054;-78
2022/10/16 01:45:07;;;;;;;13.02;10.30;;;11.10;99.90;;;;;;4971447;28;20050;-77
2022/10/16 01:47:37;;;;;;;16.38;10.45;;;11.10;99.90;;;;;;4963952;28;20051;-78
2022/10/16 01:50:07;;;;;;;16.92;9.95;;;11.20;99.90;;;;;;4971318;28;20153;-78
2022/10/16 01:52:40;;;;;;;18.48;10.25;;;11.20;99.90;;;;;;4970808;28;20058;-77
2022/10/16 01:55:11;;;;;;;11.13;9.52;;;11.30;99.90;;;;;;4968585;28;20091;-78
2022/10/16 01:57:45;;;;;;;14.23;10.27;;;11.20;99.90;;;;;;4968075;28;20051;-77
2022/10/16 02:00:15;;;;;;;13.68;10.50;;;11.20;99.90;;;;;;4972590;28;20050;-77
2022/10/16 02:02:45;;;;;;;15.20;10.23;;;11.20;99.90;;;;;;4973635;28;20067;-77
2022/10/16 02:05:17;;;;;;;13.32;10.38;;;11.10;99.90;;;;;;4962627;28;20053;-77
2022/10/16 02:07:44;;;;;;;16.63;10.52;;;11.20;99.90;;;;;;4973329;28;20058;-77
2022/10/16 02:10:12;;;;;;;16.13;10.52;;;11.10;99.90;;;;;;4972369;28;20101;-78
2022/10/16 02:12:45;;;;;;;16.52;10.40;;;11.10;99.90;;;;;;4971674;28;20151;-78
2022/10/16 02:15:12;;;;;;;16.92;10.30;;;11.10;99.90;;;;;;4957634;28;20047;-78
2022/10/16 02:17:39;;;;;;;22.05;10.95;;;11.10;99.90;;;;;;4956934;28;20081;-78
2022/10/16 02:20:07;;;;;;;16.52;9.18;;;11.10;99.90;;;;;;4973493;28;20058;-78
2022/10/16 02:22:39;;;;;;;12.38;8.93;;;11.10;99.90;;;;;;4941079;29;20428;-78
2022/10/16 02:25:10;;;;;;;17.15;9.27;;;11.10;99.90;;;;;;4952552;28;20405;-77
2022/10/16 02:27:46;;;;;;;13.32;9.32;;;11.10;99.90;;;;;;4960015;28;20054;-78
2022/10/16 02:30:17;;;;;;;12.77;9.25;;;11.00;99.90;;;;;;4956716;28;20401;-77
2022/10/16 02:32:48;;;;;;;15.75;9.15;;;11.00;99.90;;;;;;4955778;28;20054;-76
2022/10/16 02:35:18;;;;;;;13.30;9.20;;;10.90;99.90;;;;;;4972924;28;20145;-75
2022/10/16 02:37:46;;;;;;;14.55;9.55;;;10.90;99.90;;;;;;4972688;28;20050;-76
2022/10/16 02:40:15;;;;;;;16.73;9.82;;;10.80;99.90;;;;;;4972505;28;20051;-75
2022/10/16 02:42:44;;;;;;;15.75;10.23;;;10.80;99.90;;;;;;4972585;28;20133;-76
2022/10/16 02:45:12;;;;;;;17.83;9.32;;;10.80;99.90;;;;;;4952037;28;20047;-76
2022/10/16 02:47:39;;;;;;;11.88;8.52;;;10.80;99.90;;;;;;4961820;28;20078;-76
2022/10/16 02:50:07;;;;;;;15.55;9.43;;;10.80;99.90;;;;;;4955639;28;20595;-76
2022/10/16 02:52:34;;;;;;;18.92;10.00;;;10.80;99.90;;;;;;4953324;28;20055;-76
2022/10/16 02:55:02;;;;;;;22.50;10.32;;;10.80;99.90;;;;;;4963134;28;20078;-76
2022/10/16 02:57:31;;;;;;;15.77;10.68;;;10.80;99.90;;;;;;4951983;28;20126;-76
2022/10/16 03:00:00;;;;;;;17.73;10.68;;;10.80;99.90;;;;;;4940410;28;20056;-76
2022/10/16 03:02:27;;;;;;;17.13;10.80;;;10.70;99.90;;;;;;4969565;28;20093;-76
2022/10/16 03:04:54;;;;;;;13.45;9.73;;;10.60;99.90;;;;;;4968606;28;20085;-75
2022/10/16 03:07:21;;;;;;;14.77;10.23;;;10.60;99.90;;;;;;4951796;29;20104;-76
2022/10/16 03:09:49;;;;;;;18.13;11.35;;;10.60;99.90;;;;;;4951036;28;20491;-75
2022/10/16 03:12:16;;;;;;;15.45;10.98;;;10.60;99.90;;;;;;4969337;28;20059;-75
2022/10/16 03:14:43;;;;;;;14.75;10.40;;;10.50;99.90;;;;;;4970951;28;20085;-76
2022/10/16 03:17:12;;;;;;;16.90;10.95;;;10.50;99.90;;;;;;4954167;28;20051;-76
2022/10/16 03:19:40;;;;;;;17.38;10.38;;;10.50;99.90;;;;;;4951557;28;20047;-76
2022/10/16 03:22:07;;;;;;;15.93;10.68;;;10.40;99.90;;;;;;4962995;28;20593;-76
2022/10/16 03:24:34;;;;;;;18.38;10.95;;;10.40;99.90;;;;;;4957837;28;20146;-77
2022/10/16 03:27:01;;;;;;;16.73;11.05;;;10.30;99.90;;;;;;4968296;28;20108;-76
2022/10/16 03:29:29;;;;;;;14.35;11.10;;;10.30;99.90;;;;;;4951749;28;20084;-75
2022/10/16 03:31:56;;;;;;;15.38;10.45;;;10.30;99.90;;;;;;4968702;28;20051;-76
2022/10/16 03:34:25;;;;;;;17.90;11.38;;;10.30;99.90;;;;;;4969060;28;20434;-76
2022/10/16 03:36:52;;;;;;;16.27;10.25;;;10.30;99.90;;;;;;4954919;28;20109;-75
2022/10/16 03:39:20;;;;;;;15.30;10.07;;;10.30;99.90;;;;;;4971036;28;20142;-75
2022/10/16 03:41:47;;;;;;;21.02;10.32;;;10.30;99.90;;;;;;4971806;28;20051;-76
2022/10/16 03:44:14;;;;;;;18.95;10.43;;;10.30;99.90;;;;;;4971970;28;20053;-76
2022/10/16 03:46:41;;;;;;;20.20;11.07;;;10.30;99.90;;;;;;4970702;28;20047;-76
2022/10/16 03:49:09;;;;;;;15.50;11.00;;;10.20;99.90;;;;;;4968459;28;20489;-76
2022/10/16 03:51:37;;;;;;;19.85;10.95;;;10.20;99.90;;;;;;4953061;28;20130;-77
2022/10/16 03:54:04;;;;;;;16.35;10.48;;;10.20;99.90;;;;;;4951350;28;20476;-76
2022/10/16 03:56:32;;;;;;;14.32;10.15;;;10.20;99.90;;;;;;4961947;28;20081;-76
2022/10/16 03:58:59;;;;;;;21.35;10.43;;;10.20;99.90;;;;;;4968021;28;20082;-76
2022/10/16 04:01:26;;;;;;;17.15;11.23;;;10.20;99.90;;;;;;4951925;28;20051;-76
2022/10/16 04:03:53;;;;;;;18.20;10.55;;;10.10;99.90;;;;;;4955566;28;20567;-76
2022/10/16 04:06:20;;;;;;;14.10;9.90;;;10.10;99.90;;;;;;4969579;28;20042;-75
2022/10/16 04:08:49;;;;;;;16.13;10.38;;;10.10;99.90;;;;;;4968740;28;20043;-75
2022/10/16 04:11:16;;;;;;;14.20;10.13;;;10.10;99.90;;;;;;4952261;28;20102;-75
2022/10/16 04:13:43;;;;;;;21.20;10.55;;;10.10;99.90;;;;;;4958298;28;20120;-75
2022/10/16 04:16:11;;;;;;;15.00;9.98;;;10.10;99.90;;;;;;4966665;28;20133;-76
2022/10/16 04:18:38;;;;;;;15.73;10.50;;;10.10;99.90;;;;;;4971661;28;20047;-76
2022/10/16 04:21:06;;;;;;;21.02;9.90;;;10.10;99.90;;;;;;4970937;28;20054;-75
2022/10/16 04:23:34;;;;;;;18.40;11.05;;;10.00;99.90;;;;;;4973967;28;20053;-75
2022/10/16 04:26:03;;;;;;;16.42;9.55;;;9.90;99.90;;;;;;4972703;28;20145;-75
2022/10/16 04:28:30;;;;;;;17.70;9.80;;;9.90;99.90;;;;;;4973597;28;20056;-76
2022/10/16 04:30:58;;;;;;;16.60;10.23;;;9.90;99.90;;;;;;4967475;28;20066;-76
2022/10/16 04:33:25;;;;;;;15.55;10.38;;;9.80;99.90;;;;;;4966253;28;20043;-76
2022/10/16 04:35:57;;;;;;;19.38;10.10;;;9.80;99.90;;;;;;4963050;28;20436;-77
2022/10/16 04:38:25;;;;;;;19.50;10.10;;;9.70;99.90;;;;;;4938597;28;20147;-78
2022/10/16 04:40:52;;;;;;;22.17;11.82;;;9.70;99.90;;;;;;4957111;28;20350;-76
2022/10/16 04:43:21;;;;;;;15.45;10.93;;;9.70;99.90;;;;;;4961981;28;20079;-76
2022/10/16 04:45:50;;;;;;;17.90;10.85;;;9.70;99.90;;;;;;4954463;28;20051;-76
2022/10/16 04:48:17;;;;;;;20.25;10.90;;;9.70;99.90;;;;;;4955689;28;20055;-76
2022/10/16 04:50:44;;;;;;;20.30;10.27;;;9.70;99.90;;;;;;4957193;28;20051;-77
2022/10/16 04:53:12;;;;;;;16.90;10.63;;;9.70;99.90;;;;;;4974058;28;20431;-77
2022/10/16 04:55:39;;;;;;;15.32;9.40;;;9.60;99.90;;;;;;4975144;28;20058;-76
2022/10/16 04:58:07;;;;;;;15.77;10.23;;;9.60;99.90;;;;;;4974870;28;20051;-76
2022/10/16 05:00:38;;;;;;;15.32;10.55;;;9.60;99.90;;;;;;4970378;28;20047;-76
2022/10/16 05:03:08;;;;;;;20.55;9.82;;;9.60;99.90;;;;;;4973884;28;20444;-79
2022/10/16 05:05:36;;;;;;;14.85;9.45;;;9.60;99.90;;;;;;4968480;28;20082;-76
2022/10/16 05:08:03;;;;;;;16.20;10.02;;;9.70;99.90;;;;;;4972154;28;20115;-77
2022/10/16 05:10:31;;;;;;;18.52;10.60;;;9.80;99.90;;;;;;4965039;28;20051;-78
2022/10/16 05:12:58;;;;;;;20.50;9.88;;;9.80;99.90;;;;;;4955126;29;20055;-78
2022/10/16 05:15:26;;;;;;;14.30;10.10;;;9.90;99.90;;;;;;4945830;28;20054;-78
2022/10/16 05:17:57;;;;;;;16.88;10.55;;;10.00;99.90;;;;;;4970432;28;20047;-78
2022/10/16 05:20:24;;;;;;;17.95;10.70;;;9.90;99.90;;;;;;4969705;28;20064;-77
2022/10/16 05:22:51;;;;;;;12.70;9.38;;;9.90;99.90;;;;;;4971900;28;20043;-79
2022/10/16 05:25:19;;;;;;;16.33;10.68;;;9.80;99.90;;;;;;4974255;28;20043;-80
2022/10/16 05:27:49;;;;;;;15.30;9.52;;;9.80;99.90;;;;;;4971962;28;20070;-80
2022/10/16 05:30:16;;;;;;;14.05;9.30;;;9.80;99.90;;;;;;4971297;28;20533;-80
2022/10/16 05:32:47;;;;;;;15.05;10.70;;;9.80;99.90;;;;;;4959107;28;20121;-80
2022/10/16 05:35:15;;;;;;;15.88;9.45;;;9.80;99.90;;;;;;4943254;29;20067;-82
2022/10/16 05:37:43;;;;;;;17.73;8.27;;;9.80;99.90;;;;;;4969192;28;20057;-79
2022/10/16 05:40:11;;;;;;;17.55;10.55;;;9.90;99.90;;;;;;4973344;28;20499;-80
2022/10/16 05:42:39;;;;;;;12.90;9.93;;;9.90;99.90;;;;;;4967891;28;20508;-78
2022/10/16 05:45:11;;;;;;;16.55;9.05;;;10.00;99.90;;;;;;4967686;28;20055;-77
2022/10/16 05:47:38;;;;;;;15.65;9.90;;;10.10;99.90;;;;;;4986049;28;20158;-77
2022/10/16 05:50:06;;;;;;;12.15;8.77;;;10.10;99.90;;;;;;4967451;28;20069;-79
2022/10/16 05:52:35;;;;;;;13.50;9.00;;;10.10;99.90;;;;;;4961108;28;20105;-80
2022/10/16 05:55:03;;;;;;;16.30;9.93;;;10.00;99.90;;;;;;4958817;28;20097;-78
2022/10/16 05:57:31;;;;;;;14.35;9.15;;;10.00;99.90;;;;;;4975730;28;20059;-84
2022/10/16 06:00:01;;;;;;;13.05;9.65;;;10.00;99.90;;;;;;4977491;28;20047;-82
2022/10/16 06:02:30;;;;;;;23.42;10.98;;;10.10;99.90;;;;;;4963649;29;20063;-86
2022/10/16 06:04:57;;;;;;;16.13;11.13;;;10.10;99.90;;;;;;4972564;28;20039;-85
2022/10/16 06:07:27;;;;;;;18.20;10.07;;;10.10;99.90;;;;;;4972146;28;20130;-85
2022/10/16 06:09:57;;;;;;;22.23;11.60;;;10.10;99.90;;;;;;4974535;28;20074;-86
2022/10/16 06:12:24;;;;;;;21.10;12.68;;;10.10;99.90;;;;;;4962224;29;20051;-83
2022/10/16 06:14:52;;;;;;;32.15;18.13;;;10.20;99.90;;;;;;4969755;28;20051;-83
2022/10/16 06:17:21;;;;;;;18.60;10.63;;;10.20;99.90;;;;;;4973609;28;20051;-83
2022/10/16 06:19:59;;;;;;;18.98;10.63;;;10.30;99.90;;;;;;4975964;28;20177;-87
2022/10/16 06:22:26;;;;;;;16.38;9.20;;;10.40;99.90;;;;;;4960529;28;20503;-86
2022/10/16 06:24:56;;;;;;;13.15;9.38;;;10.50;99.90;;;;;;4975637;28;20542;-86
2022/10/16 06:27:23;;;;;;;15.20;9.88;;;10.50;99.90;;;;;;4972986;28;20081;-87
2022/10/16 06:29:52;;;;;;;15.95;10.57;;;10.50;99.90;;;;;;4970914;28;20507;-85
2022/10/16 06:32:22;;;;;;;20.98;9.13;;;10.60;99.90;;;;;;4979421;28;20117;-85
2022/10/16 06:34:49;;;;;;;18.15;9.82;;;10.70;99.90;;;;;;4961815;29;20122;-86
2022/10/16 06:37:17;;;;;;;17.08;9.38;;;10.70;99.90;;;;;;4972709;28;20047;-81
2022/10/16 06:39:44;;;;;;;15.38;9.45;;;10.70;99.90;;;;;;4977781;28;20081;-84
2022/10/16 06:42:28;;;;;;;17.50;8.32;;;10.70;99.90;;;;;;4952808;28;20087;-85
2022/10/16 06:45:01;;;;;;;17.33;9.00;;;10.80;99.90;;;;;;4975355;28;20066;-86
2022/10/16 06:50:22;;;;;;;13.48;8.63;;;10.90;99.90;;;;;;4971024;28;20058;-87
2022/10/16 06:52:51;;;;;;;14.25;9.63;;;10.90;99.90;;;;;;4942654;29;20055;-86
2022/10/16 06:55:18;;;;;;;14.90;8.68;;;10.90;99.90;;;;;;4940202;29;20046;-79
2022/10/16 06:57:48;;;;;;;18.10;9.50;;;10.90;99.90;;;;;;4960965;28;20049;-80
2022/10/16 07:00:17;;;;;;;16.00;9.38;;;11.10;99.90;;;;;;4973202;28;20054;-80
2022/10/16 07:02:46;;;;;;;16.33;9.40;;;11.30;99.90;;;;;;4967705;28;20063;-79
2022/10/16 07:05:17;;;;;;;13.95;8.93;;;11.40;99.90;;;;;;4967008;28;20043;-80
2022/10/16 07:07:44;;;;;;;16.00;9.70;;;11.50;99.90;;;;;;4965170;28;20089;-79
2022/10/16 07:10:11;;;;;;;22.33;9.70;;;11.60;99.90;;;;;;4968253;28;20137;-78
2022/10/16 07:12:39;;;;;;;16.52;8.95;;;11.80;99.90;;;;;;4961761;28;20071;-80
2022/10/16 07:15:09;;;;;;;13.60;8.82;;;11.90;99.90;;;;;;4963198;28;20043;-78
2022/10/16 07:17:37;;;;;;;18.55;9.35;;;11.90;99.90;;;;;;4956865;28;20119;-79
2022/10/16 07:20:04;;;;;;;21.35;8.75;;;12.00;99.90;;;;;;4948372;28;20050;-79
2022/10/16 07:22:31;;;;;;;15.88;9.35;;;11.90;99.90;;;;;;4966196;28;20097;-78
2022/10/16 07:24:59;;;;;;;18.63;9.57;;;11.80;99.90;;;;;;4968940;28;20597;-77
2022/10/16 07:27:26;;;;;;;19.80;9.07;;;11.80;99.90;;;;;;4963735;28;20042;-78
2022/10/16 07:29:53;;;;;;;16.80;8.73;;;11.90;99.90;;;;;;4960426;28;20051;-80
2022/10/16 07:32:22;;;;;;;16.60;9.25;;;11.80;99.90;;;;;;4968654;28;20047;-83
2022/10/16 07:34:50;;;;;;;14.75;9.07;;;11.80;99.90;;;;;;4974484;28;20509;-82
2022/10/16 07:37:18;;;;;;;16.45;8.93;;;11.90;99.90;;;;;;4964044;28;20050;-85
2022/10/16 07:39:49;;;;;;;15.40;9.00;;;11.80;99.90;;;;;;4978499;28;20463;-82
2022/10/16 07:42:16;;;;;;;19.00;8.40;;;11.70;99.90;;;;;;4969895;28;20047;-84
2022/10/16 07:44:43;;;;;;;15.75;8.00;;;11.70;99.90;;;;;;4975692;28;20034;-81
2022/10/16 07:47:11;;;;;;;13.85;7.53;;;11.80;99.90;;;;;;4973092;28;20507;-80
2022/10/16 07:49:40;;;;;;;14.43;7.45;;;11.70;99.90;;;;;;4972729;28;20047;-79
2022/10/16 07:52:07;;;;;;;13.95;8.10;;;12.00;99.90;;;;;;4967703;28;20047;-80
2022/10/16 07:54:34;;;;;;;13.38;8.55;;;12.70;99.90;;;;;;4970382;28;20047;-80
2022/10/16 07:57:01;;;;;;;14.80;7.97;;;13.20;99.90;;;;;;4976132;28;20455;-81
2022/10/16 07:59:28;;;;;;;14.85;7.68;;;13.00;99.90;;;;;;4974523;28;20110;-82
2022/10/16 08:01:56;;;;;;;12.75;8.05;;;12.70;99.90;;;;;;4966490;28;20528;-79
2022/10/16 08:04:24;;;;;;;14.60;7.78;;;12.30;99.90;;;;;;4978078;28;20039;-78
2022/10/16 08:06:56;;;;;;;15.20;8.50;;;12.10;99.90;;;;;;4969066;28;20089;-80
2022/10/16 08:09:23;;;;;;;13.68;8.43;;;12.00;99.90;;;;;;4977982;28;20695;-79
2022/10/16 08:11:52;;;;;;;14.20;8.57;;;11.90;99.90;;;;;;4978287;28;20042;-81
2022/10/16 08:14:19;;;;;;;13.40;8.73;;;11.70;99.90;;;;;;4957405;28;20141;-78
2022/10/16 08:16:46;;;;;;;15.88;8.40;;;11.60;99.90;;;;;;4960236;28;20069;-76
2022/10/16 08:19:15;;;;;;;15.73;10.18;;;11.50;99.90;;;;;;4955641;29;20146;-76
2022/10/16 08:21:43;;;;;;;14.93;8.63;;;11.40;99.90;;;;;;4960866;28;20058;-78
2022/10/16 08:24:11;;;;;;;15.20;9.32;;;11.40;99.90;;;;;;4974401;28;20059;-78
2022/10/16 08:26:38;;;;;;;14.70;8.88;;;11.40;99.90;;;;;;4971929;28;20048;-80
2022/10/16 08:29:06;;;;;;;13.95;9.38;;;11.30;99.90;;;;;;4978350;28;20051;-82
2022/10/16 08:31:34;;;;;;;19.65;8.70;;;11.60;99.90;;;;;;4982366;28;20039;-84
2022/10/16 08:34:02;;;;;;;12.13;7.80;;;12.10;99.90;;;;;;4977095;28;20054;-85
2022/10/16 08:36:30;;;;;;;12.68;8.15;;;12.40;99.90;;;;;;4979754;28;20058;-86
2022/10/16 08:39:00;;;;;;;14.93;8.85;;;12.50;99.90;;;;;;4969353;28;20054;-86
2022/10/16 08:42:11;;;;;;;14.70;7.82;;;12.40;99.90;;;;;;4976021;28;20511;-83
2022/10/16 08:45:13;;;;;;;13.05;7.85;;;12.30;99.90;;;;;;4964573;28;20066;-86
2022/10/16 08:47:53;;;;;;;12.00;7.45;;;12.20;99.90;;;;;;4976352;28;20050;-82
2022/10/16 08:50:25;;;;;;;12.43;7.15;;;12.10;99.90;;;;;;4975629;28;20431;-79
2022/10/16 08:52:52;;;;;;;15.88;7.30;;;12.00;99.90;;;;;;4957284;28;20539;-80
2022/10/16 08:55:38;;;;;;;11.18;6.93;;;11.90;99.90;;;;;;4970004;28;20053;-79
2022/10/16 08:58:13;;;;;;;10.07;7.22;;;11.80;99.90;;;;;;4970578;28;20074;-81
2022/10/16 09:00:42;;;;;;;18.73;7.03;;;11.80;99.90;;;;;;4969508;28;20082;-79
2022/10/16 09:03:18;;;;;;;11.88;7.53;;;11.80;99.90;;;;;;4966740;28;20550;-79
2022/10/16 09:06:13;;;;;;;14.40;7.50;;;11.70;99.90;;;;;;4953731;28;20047;-82
2022/10/16 09:08:52;;;;;;;13.73;7.15;;;11.60;99.90;;;;;;4968335;28;20062;-79
2022/10/16 09:11:35;;;;;;;16.92;7.50;;;11.60;99.90;;;;;;4941542;29;20078;-81
2022/10/16 09:14:18;;;;;;;11.73;8.77;;;11.60;99.90;;;;;;4969600;28;20423;-80
2022/10/16 09:16:49;;;;;;;10.52;6.70;;;11.60;99.90;;;;;;4963234;28;20079;-81
2022/10/16 09:19:24;;;;;;;12.68;8.18;;;11.70;99.90;;;;;;4958173;28;20051;-81
2022/10/16 09:21:52;;;;;;;15.32;8.23;;;11.80;99.90;;;;;;4957764;28;20131;-84
2022/10/16 09:24:23;;;;;;;11.32;7.45;;;11.80;99.90;;;;;;4975642;28;20516;-81
2022/10/16 09:26:51;;;;;;;13.15;8.45;;;11.80;99.90;;;;;;4974725;28;20511;-82
2022/10/16 09:29:24;;;;;;;16.02;7.13;;;11.80;99.90;;;;;;4978507;28;20070;-85
2022/10/16 09:31:53;;;;;;;14.55;7.95;;;11.80;99.90;;;;;;4976969;28;20545;-83
2022/10/16 09:34:28;;;;;;;9.85;7.65;;;11.70;99.90;;;;;;4965546;28;20114;-82
2022/10/16 09:36:57;;;;;;;13.45;7.32;;;11.80;99.90;;;;;;4964317;28;20049;-81
2022/10/16 09:39:24;;;;;;;15.82;7.75;;;11.80;99.90;;;;;;4977821;28;20050;-83
2022/10/16 09:41:52;;;;;;;14.05;7.93;;;11.90;99.90;;;;;;4961217;28;21153;-83
2022/10/16 09:44:27;;;;;;;17.50;8.75;;;12.00;99.90;;;;;;4975432;28;20057;-83
2022/10/16 09:47:03;;;;;;;15.55;8.27;;;12.00;99.90;;;;;;4970113;28;20052;-83
2022/10/16 09:49:31;;;;;;;12.60;8.30;;;12.10;99.90;;;;;;4962020;28;20058;-81
2022/10/16 09:52:05;;;;;;;19.63;7.95;;;12.10;99.90;;;;;;4963957;28;20065;-84
2022/10/16 09:54:33;;;;;;;14.50;8.70;;;12.00;99.90;;;;;;4958029;28;20354;-78
2022/10/16 09:57:08;;;;;;;19.00;8.98;;;12.00;99.90;;;;;;4957213;28;20055;-79
2022/10/16 09:59:47;;;;;;;14.07;8.45;;;12.00;99.90;;;;;;4963353;28;20062;-82
2022/10/16 10:02:16;;;;;;;13.30;7.40;;;12.00;99.90;;;;;;4961781;28;20125;-77
2022/10/16 10:04:49;;;;;;;13.88;7.80;;;12.00;99.90;;;;;;4972166;28;20150;-74
2022/10/16 10:07:21;;;;;;;14.25;8.50;;;12.00;99.90;;;;;;4967948;28;20451;-77
2022/10/16 10:09:48;;;;;;;13.18;7.47;;;12.00;99.90;;;;;;4964259;28;20369;-79
2022/10/16 10:12:20;;;;;;;9.95;7.75;;;12.00;99.90;;;;;;4961694;28;20146;-78
2022/10/16 10:14:51;;;;;;;15.20;7.90;;;12.10;99.90;;;;;;4969699;28;20582;-80
2022/10/16 10:17:21;;;;;;;12.30;7.82;;;12.10;99.90;;;;;;4973100;28;20051;-78
2022/10/16 10:19:54;;;;;;;14.98;8.57;;;12.10;99.90;;;;;;4971834;28;20571;-78
2022/10/16 10:22:27;;;;;;;15.27;7.85;;;12.10;99.90;;;;;;4967449;28;20062;-80
2022/10/16 10:25:12;;;;;;;;;;;12.00;99.90;;;;;;4966329;28;20142;-79
2022/10/16 10:27:51;;;;;;;21.48;8.10;;;12.00;99.90;;;;;;4947074;28;20399;-80
2022/10/16 10:30:26;;;;;;;14.85;7.97;;;11.90;99.90;;;;;;4943545;28;20566;-79
2022/10/16 10:33:10;;;;;;;12.93;7.90;;;11.90;99.90;;;;;;4959369;28;20058;-79
2022/10/16 10:35:45;;;;;;;18.00;9.02;;;12.10;99.90;;;;;;4961987;28;20055;-80
2022/10/16 10:38:30;;;;;;;16.02;7.50;;;12.10;99.90;;;;;;4955369;28;20124;-77
2022/10/16 10:41:22;;;;;;;11.57;7.45;;;12.20;99.90;;;;;;4966807;28;20065;-82
2022/10/16 10:44:02;;;;;;;18.47;7.73;;;12.20;99.90;;;;;;4956134;28;20058;-79
2022/10/16 10:46:36;;;;;;;11.23;6.72;;;12.20;99.90;;;;;;4959341;28;20307;-78
2022/10/16 10:49:34;;;;;;;7.68;6.22;;;12.20;99.90;;;;;;4970416;28;20138;-80
2022/10/16 10:52:14;;;;;;;16.00;7.63;;;12.10;99.90;;;;;;4957402;28;20074;-77
2022/10/16 10:54:52;;;;;;;10.52;6.60;;;12.20;99.90;;;;;;4963982;28;20114;-79
2022/10/16 10:57:29;;;;;;;12.52;6.75;;;12.10;99.90;;;;;;4966789;28;20054;-84
2022/10/16 11:00:10;;;;;;;15.18;7.20;;;12.00;99.90;;;;;;4966176;28;20050;-80
2022/10/16 11:02:45;;;;;;;8.38;6.85;;;12.00;99.90;;;;;;4960875;28;20138;-83
2022/10/16 11:05:39;;;;;;;14.45;6.80;;;11.90;99.90;;;;;;4954881;28;20046;-83
2022/10/16 11:08:14;;;;;;;13.93;6.75;;;11.90;99.90;;;;;;4964841;28;20058;-84
2022/10/16 11:10:50;;;;;;;9.35;6.35;;;11.90;99.90;;;;;;4970173;28;20596;-86
2022/10/16 11:13:29;;;;;;;9.38;6.45;;;11.90;99.90;;;;;;4957794;28;20055;-87
2022/10/16 11:16:01;;;;;;;8.40;6.82;;;11.80;99.90;;;;;;4973842;28;20046;-87
2022/10/16 11:18:41;;;;;;;10.48;6.75;;;11.80;99.90;;;;;;4968507;28;20051;-86
2022/10/16 11:21:14;;;;;;;10.88;6.88;;;11.70;99.90;;;;;;4959196;28;20047;-85
2022/10/16 11:23:48;;;;;;;13.57;6.68;;;11.70;99.90;;;;;;4967672;28;20487;-83
2022/10/16 11:26:20;;;;;;;;;;;11.60;99.90;;;;;;4964886;28;20113;-83
2022/10/16 11:28:50;;;;;;;15.98;8.98;;;11.50;99.90;;;;;;4956951;28;19950;-79
2022/10/16 11:31:24;;;;;;;12.27;7.07;;;11.40;99.90;;;;;;4955192;28;20090;-82
2022/10/16 11:34:16;;;;;;;9.77;6.30;;;11.30;99.90;;;;;;4965286;28;20605;-82
2022/10/16 11:36:49;;;;;;;9.30;7.47;;;11.30;99.90;;;;;;4983589;28;20043;-82
2022/10/16 11:39:22;;;;;;;11.43;6.70;;;11.30;99.90;;;;;;4946963;28;20342;-81
2022/10/16 11:41:54;;;;;;;10.90;6.70;;;11.30;99.90;;;;;;4969532;28;20302;-83
2022/10/16 11:44:36;;;;;;;10.85;6.60;;;11.20;99.90;;;;;;4969658;28;20447;-85
2022/10/16 11:47:16;;;;;;;12.45;6.68;;;11.20;99.90;;;;;;4960293;28;20043;-86
2022/10/16 11:49:46;;;;;;;10.85;8.05;;;11.20;99.90;;;;;;4965295;28;20481;-84
2022/10/16 11:52:22;;;;;;;12.98;7.57;;;11.10;99.90;;;;;;4939040;28;20066;-83
2022/10/16 11:54:55;;;;;;;13.88;9.00;;;11.10;99.90;;;;;;4957357;28;20091;-81
2022/10/16 11:57:27;;;;;;;9.73;7.03;;;11.10;99.90;;;;;;4958574;28;20102;-84
2022/10/16 12:00:03;;;;;;;10.65;6.63;;;11.10;99.90;;;;;;4944487;28;20050;-79
2022/10/16 12:02:53;;;;;;;14.48;7.50;;;11.10;99.90;;;;;;4956702;28;20058;-83
2022/10/16 12:05:29;;;;;;;8.35;6.78;;;11.10;99.90;;;;;;4959784;28;20046;-87
2022/10/16 12:08:11;;;;;;;9.55;6.03;;;11.00;99.90;;;;;;4949972;28;20135;-85
2022/10/16 12:10:42;;;;;;;8.60;6.40;;;11.00;99.90;;;;;;4969453;28;20031;-87
2022/10/16 12:13:35;;;;;;;8.45;6.68;;;11.00;99.90;;;;;;4977126;28;20420;-89
2022/10/16 12:16:07;;;;;;;11.65;6.57;;;10.90;99.90;;;;;;4960280;28;20153;-86
2022/10/16 12:18:35;;;;;;;9.45;6.18;;;10.90;99.90;;;;;;4952517;28;20093;-82
2022/10/16 12:21:08;;;;;;;8.85;6.28;;;10.90;99.90;;;;;;4971673;28;20097;-84
2022/10/16 12:23:39;;;;;;;11.68;6.90;;;10.90;99.90;;;;;;4964629;28;20449;-82
2022/10/16 12:26:07;;;;;;;10.25;7.18;;;10.90;99.90;;;;;;4964766;28;20055;-80
2022/10/16 12:28:36;;;;;;;16.02;6.70;;;11.00;99.90;;;;;;4961043;28;20423;-79
2022/10/16 12:31:10;;;;;;;9.48;6.50;;;11.00;99.90;;;;;;4960776;28;20102;-83
2022/10/16 12:33:40;;;;;;;10.32;6.72;;;10.90;99.90;;;;;;4962527;28;20047;-82
2022/10/16 12:36:17;;;;;;;11.85;6.95;;;10.90;99.90;;;;;;4956000;28;20048;-83
2022/10/16 12:38:48;;;;;;;10.60;6.63;;;10.90;99.90;;;;;;4954092;28;20039;-83
2022/10/16 12:41:26;;;;;;;10.93;7.88;;;10.90;99.90;;;;;;4955853;28;20059;-84
2022/10/16 12:43:54;;;;;;;8.25;6.75;;;10.90;99.90;;;;;;4967016;28;20149;-82
2022/10/16 12:46:38;;;;;;;12.32;7.65;;;11.00;99.90;;;;;;4963041;28;20038;-81
2022/10/16 12:49:24;;;;;;;12.13;6.72;;;11.00;99.90;;;;;;4954794;28;20074;-80
2022/10/16 12:51:55;;;;;;;9.38;6.72;;;11.00;99.90;;;;;;4961409;28;20051;-84
2022/10/16 12:54:28;;;;;;;13.25;6.75;;;11.00;99.90;;;;;;4969872;28;20047;-81
2022/10/16 12:57:13;;;;;;;9.48;6.40;;;11.00;99.90;;;;;;4964156;28;20074;-81
2022/10/16 12:59:49;;;;;;;9.48;6.60;;;10.90;99.90;;;;;;4968673;28;20515;-84